DTTALGKR

Guest
Details From DTTA - CARTHAGE
To LGKR - IOANNIS KAPODISTRIAS INTL
Flight Number -
Tags generated
Created
Modified
Stats Distance 488 nm / 904 km
Max Altitude 35,000 ft / 10,668 m
Waypoints 11
Social Downloads 0
Likes 0
Share VATSIM

Download

Looking for another format? Having issues loading an existing format? Contact us
Advertisement - Login to hide

Notes

Basic altitude profile: - Ascent Rate: 2500ft/min - Ascent Speed: 250kts - Cruise Altitude: 35000ft - Cruise Speed: 420kts - Descent Rate: 1500ft/min - Descent Speed: 250kts Options: - Use NATs: yes - Use PACOTS: yes - Use low airways: yes - Use high airways: yes

Route

DTTA LOPKO UL869 GEMVI LGKR

ID Type Via Altitude Latitude Longitude Leg Dist Tot Dist Heading (true) Name
O DTTA APT - 0 ft / 0 m 36.85127˚ 10.23003˚ - 0 nm - CARTHAGE
LOPKO FIX - 35,000 ft / 10,668 m 37.66611˚ 12.18028˚ 105 nm 105 nm 62° / 63° -
TRP VOR UL869 (AWY-HI) 35,000 ft / 10,668 m 37.89609˚ 12.51333˚ 20 nm 126 nm 49° / 49° TRAPANI VORTAC
PAL VOR UL869 (AWY-HI) 35,000 ft / 10,668 m 38.03389˚ 13.17750˚ 32 nm 158 nm 75° / 75° PALERMO VOR-DME
PELEN FIX UL869 (AWY-HI) 35,000 ft / 10,668 m 38.33472˚ 14.45389˚ 62 nm 221 nm 73° / 74° -
PIGER FIX UL869 (AWY-HI) 35,000 ft / 10,668 m 38.54861˚ 15.40611˚ 46 nm 268 nm 74° / 74° -
PEROS FIX UL869 (AWY-HI) 35,000 ft / 10,668 m 38.63750˚ 15.82028˚ 20 nm 288 nm 75° / 75° -
CDC VOR UL869 (AWY-HI) 35,000 ft / 10,668 m 38.75583˚ 16.36917˚ 26 nm 315 nm 74° / 75° CARAFFA DI CATANZARO VORTAC
CRN VOR UL869 (AWY-HI) 29,200 ft / 8,900 m 38.99611˚ 17.08305˚ 36 nm 351 nm 66° / 67° CROTONE VOR-DME
GEMVI FIX UL869 (AWY-HI) 21,800 ft / 6,645 m 39.11278˚ 17.80528˚ 34 nm 385 nm 78° / 78° -
O LGKR APT - 0 ft / 0 m 39.60178˚ 19.91191˚ 102 nm 488 nm 73° / 74° IOANNIS KAPODISTRIAS INTL

Altitude Profile

Advertisement - Login to hide

Weather


0- 5 10 15 20 25 30 35+ Temperature / ° C

Clouds and Precipitation
Forecast for 2018-05-27 00:00 UTC. Updated 6 hours ago

Ground ~20,000 ft ~40,000 ft Winds

DTTA

Details ICAO DTTA (TUN)
Name CARTHAGE
Region Tunisia
Timezone Africa/Tunis (UTC+1.0)
Stats Elevation 22 ft / 7 m (AMSL)
Location 36.851267° 10.230027°
Runways 2
Magnetic Variation 2.446° E

METAR

DTTA 270500Z 15014KT 9999 FEW026 23/11 Q1015 NOSIG

Decode

TAF

TAF DTTA 270044Z 2700/2724 12006KT 9999 FEW026= TAF DTMB 270044Z 2700/2724 VRB03KT CAVOK

Decode

Departure Runways

ID Width Length Bearing (true) Bearing (mag) Surface Threshold Offset Overrun Length
01 148 ft / 45 m 10,502 ft / 3,201 m 12.29° 9.84° Asphalt 0 ft / 0 m 197 ft / 60 m
11 148 ft / 45 m 9,345 ft / 2,848 m 112.55° 110.10° Asphalt 0 ft / 0 m 643 ft / 196 m
19 148 ft / 45 m 10,502 ft / 3,201 m 192.29° 189.84° Asphalt 0 ft / 0 m 197 ft / 60 m
29 148 ft / 45 m 9,345 ft / 2,848 m 292.57° 290.12° Asphalt 657 ft / 200 m 197 ft / 60 m

LGKR

Details ICAO LGKR (CFU)
Name IOANNIS KAPODISTRIAS INTL
Region Greece
Timezone Europe/Athens (UTC+3.0)
Stats Elevation 6 ft / 2 m (AMSL)
Location 39.601779° 19.911908°
Runways 1
Magnetic Variation 4.143° E

METAR

LGKR 270450Z 00000KT CAVOK 20/18 Q1015 NOSIG

Decode

TAF

TAF LGKR 262300Z 2700/2724 VRB05KT 9999 FEW030 BECMG 2710/2712 24010KT BECMG 2710/2712 FEW020 SCT080

Decode

Destination Runways

ID Width Length Bearing (true) Bearing (mag) Surface Threshold Offset Overrun Length
17 148 ft / 45 m 7,815 ft / 2,382 m 168.81° 164.67° Asphalt 1,348 ft / 411 m 0 ft / 0 m
35 148 ft / 45 m 7,815 ft / 2,382 m 348.81° 344.67° Asphalt 213 ft / 65 m 0 ft / 0 m

Popular Alternatives